BIKF

Keflavík International Airport

Airport
ICAO code
BIKF
IATA Code
KEF
Summary
ICAO Region
NAT
ICAO Territory
Location

Keflavik, Suournes

Serving
Keflavik
Elevation
171 ft
Coordinates
63° 58' 36" N , 22° 36' 53" W
KCC
Cfc
Airport WX
Volcanic Ash
Metar
Observation
BIKF 081900Z 19017KT 4500 -DZ BKN004 OVC011 11/11 Q0999
Station
Keflavikurflugvollur
Date/Time
2022-08-08 19:00:00
Wind direction
190°
Wind speed
17 kts
Lowest cloud amount
broken clouds
Temperature
11°C
Dew point
11°C
Humidity
100%
QNH
999 hPa
Weather condition
n/a

Description

International civ/mil airport serving western Iceland.

Climatology

Subpolar Oceanic climate (Köppen climate classification Cfc) - uniform precipitation distribution, temperatures are moderated by the proximity of the ocean and warm currents - cool summers and comparatively mild winters.

Runways

Designator Length Width Surface Rops
2/20 3054 60 ASP Yes/Yes
11/29 3065 60 ASP Yes/Yes

Airport map

Aerial View

SKYbrary Partners:

Safety knowledge contributed by: